createdAt,value
2019-06-15T00:01:35.632Z,69.48
2019-06-15T00:04:23.193Z,69.89
2019-06-15T00:07:11.206Z,70.10
2019-06-15T00:09:58.731Z,70.23
2019-06-15T00:12:46.377Z,70.30
2019-06-15T00:15:33.499Z,70.37
2019-06-15T00:18:21.194Z,70.41
2019-06-15T00:21:08.621Z,70.40
2019-06-15T00:23:56.455Z,70.38
2019-06-15T00:26:44.421Z,70.34
2019-06-15T00:29:32.173Z,70.54
2019-06-15T00:32:19.663Z,70.53
2019-06-15T00:35:07.591Z,70.57
2019-06-15T00:37:55.308Z,70.66
2019-06-15T00:40:42.542Z,70.98
2019-06-15T00:43:30.193Z,71.31
2019-06-15T00:46:17.850Z,71.44
2019-06-15T00:49:05.493Z,71.59
2019-06-15T00:51:53.557Z,71.70
2019-06-15T00:54:50.091Z,71.80
2019-06-15T00:57:28.763Z,71.61
2019-06-15T01:00:16.495Z,71.76
2019-06-15T01:03:03.915Z,71.67
2019-06-15T01:05:51.053Z,71.43
2019-06-15T01:08:38.492Z,71.19
2019-06-15T01:11:26.187Z,71.05
2019-06-15T01:14:13.768Z,70.67
2019-06-15T01:17:01.319Z,69.63
2019-06-15T01:19:48.797Z,69.61
2019-06-15T01:22:36.097Z,69.36
2019-06-15T01:25:23.621Z,69.15
2019-06-15T01:28:11.125Z,69.08
2019-06-15T01:30:58.816Z,69.23
2019-06-15T01:33:46.317Z,69.20
2019-06-15T01:36:33.689Z,68.85
2019-06-15T01:39:21.728Z,68.50
2019-06-15T01:42:10.879Z,68.12
2019-06-15T01:44:58.010Z,68.08
2019-06-15T01:47:45.784Z,67.69
2019-06-15T01:50:33.155Z,67.53
2019-06-15T01:53:20.800Z,67.88
2019-06-15T01:56:08.819Z,68.08
2019-06-15T01:58:56.155Z,68.27
2019-06-15T02:01:43.455Z,68.50
2019-06-15T02:04:31.006Z,69.14
2019-06-15T02:07:18.471Z,70.28
2019-06-15T02:10:06.080Z,71.59
2019-06-15T02:12:53.696Z,73.21
2019-06-15T02:15:41.671Z,76.85
2019-06-15T02:18:29.354Z,80.25
2019-06-15T02:21:16.776Z,80.38
2019-06-15T02:24:04.300Z,81.68
2019-06-15T02:26:51.651Z,83.15
2019-06-15T02:29:39.062Z,85.46
2019-06-15T02:32:26.732Z,86.22
2019-06-15T02:35:13.959Z,87.04
2019-06-15T02:38:01.914Z,87.41
2019-06-15T02:40:49.534Z,89.13
2019-06-15T02:43:36.991Z,89.36
2019-06-15T02:46:26.401Z,89.92
2019-06-15T02:49:12.579Z,90.88
2019-06-15T02:52:00.071Z,90.58
2019-06-15T02:54:47.245Z,91.63
2019-06-15T02:57:34.981Z,92.37
2019-06-15T03:00:37.118Z,92.48
2019-06-15T03:03:24.632Z,92.76
2019-06-15T03:06:11.970Z,93.19
2019-06-15T03:08:59.269Z,93.58
2019-06-15T03:11:47.268Z,93.78
2019-06-15T03:14:34.428Z,94.61
2019-06-15T03:17:24.520Z,94.60
2019-06-15T03:20:12.077Z,95.09
2019-06-15T03:22:59.846Z,95.14
2019-06-15T03:25:47.388Z,96.07
2019-06-15T03:28:35.062Z,96.00
2019-06-15T03:31:22.669Z,95.89
2019-06-15T03:34:10.375Z,96.07
2019-06-15T03:36:58.286Z,96.92
2019-06-15T03:39:46.232Z,96.80
2019-06-15T03:42:33.996Z,97.50
2019-06-15T03:45:21.574Z,97.69
2019-06-15T03:48:09.608Z,98.07
2019-06-15T03:50:56.735Z,97.67
2019-06-15T03:53:44.051Z,97.67
2019-06-15T03:56:31.750Z,98.24
2019-06-15T03:59:19.710Z,98.77
2019-06-15T04:02:07.315Z,98.92
2019-06-15T04:04:54.814Z,99.22
2019-06-15T04:07:42.174Z,99.30
2019-06-15T04:10:29.754Z,99.48
2019-06-15T04:13:17.386Z,99.57
2019-06-15T04:16:04.607Z,99.78
2019-06-15T04:18:52.485Z,99.84
2019-06-15T04:21:40.348Z,99.99
2019-06-15T04:24:27.927Z,100.00
2019-06-15T04:27:15.678Z,100.00
2019-06-15T04:30:03.627Z,100.00
2019-06-15T04:32:51.096Z,100.00
2019-06-15T04:35:38.890Z,100.00
2019-06-15T04:38:26.346Z,100.00
2019-06-15T04:41:14.000Z,100.00
2019-06-15T04:44:01.446Z,100.00
2019-06-15T04:46:48.751Z,100.00
2019-06-15T04:49:36.044Z,100.00
2019-06-15T04:52:23.960Z,100.00
2019-06-15T04:55:11.394Z,100.00
2019-06-15T04:57:58.830Z,100.00
2019-06-15T05:00:46.390Z,100.00
2019-06-15T05:03:33.777Z,100.00
2019-06-15T05:06:21.192Z,100.00
2019-06-15T05:09:08.582Z,100.00
2019-06-15T05:11:55.987Z,100.00
2019-06-15T05:14:43.389Z,100.00
2019-06-15T05:17:30.912Z,100.00
2019-06-15T05:20:18.530Z,100.00
2019-06-15T05:23:05.799Z,100.00
2019-06-15T05:25:53.460Z,100.00
2019-06-15T05:28:40.939Z,100.00
2019-06-15T05:31:28.369Z,100.00
2019-06-15T05:34:15.763Z,100.00
2019-06-15T05:37:03.937Z,100.00
2019-06-15T05:39:51.898Z,100.00
2019-06-15T05:42:39.201Z,100.00
2019-06-15T05:45:26.617Z,100.00
2019-06-15T05:48:14.334Z,100.00
2019-06-15T05:51:01.765Z,100.00
2019-06-15T05:53:48.878Z,100.00
2019-06-15T05:56:36.567Z,100.00
2019-06-15T05:59:24.042Z,100.00
2019-06-15T06:02:11.567Z,100.00
2019-06-15T06:04:58.885Z,100.00
2019-06-15T06:07:46.958Z,100.00
2019-06-15T06:10:34.388Z,100.00
2019-06-15T06:13:22.221Z,100.00
2019-06-15T06:16:10.196Z,100.00
2019-06-15T06:18:58.064Z,100.00
2019-06-15T06:21:45.429Z,100.00
2019-06-15T06:24:32.916Z,100.00
2019-06-15T06:27:35.661Z,99.88
2019-06-15T06:30:08.593Z,99.94
2019-06-15T06:32:56.655Z,99.78
2019-06-15T06:35:44.093Z,99.66
2019-06-15T06:38:32.172Z,99.64
2019-06-15T06:41:20.111Z,99.55
2019-06-15T06:44:07.551Z,99.64
2019-06-15T06:46:55.212Z,99.07
2019-06-15T06:49:42.708Z,99.38
2019-06-15T06:52:30.484Z,99.16
2019-06-15T06:55:17.918Z,98.49
2019-06-15T06:58:05.744Z,98.70
2019-06-15T07:00:53.488Z,98.42
2019-06-15T07:03:41.183Z,97.99
2019-06-15T07:06:28.671Z,98.61
2019-06-15T07:09:16.808Z,97.81
2019-06-15T07:12:03.987Z,97.21
2019-06-15T07:14:51.727Z,97.26
2019-06-15T07:17:39.316Z,96.77
2019-06-15T07:20:27.116Z,96.20
2019-06-15T07:23:14.800Z,95.84
2019-06-15T07:26:02.366Z,96.21
2019-06-15T07:28:50.172Z,95.46
2019-06-15T07:31:38.496Z,95.46
2019-06-15T07:34:25.964Z,95.97
2019-06-15T07:37:13.216Z,95.53
2019-06-15T07:40:00.766Z,94.37
2019-06-15T07:42:48.167Z,94.20
2019-06-15T07:45:35.523Z,93.76
2019-06-15T07:48:23.526Z,93.58
2019-06-15T07:51:11.556Z,93.19
2019-06-15T07:53:58.687Z,92.42
2019-06-15T07:56:46.242Z,92.70
2019-06-15T07:59:33.666Z,92.04
2019-06-15T08:02:20.972Z,91.14
2019-06-15T08:05:08.397Z,91.64
2019-06-15T08:07:55.873Z,91.42
2019-06-15T08:10:43.522Z,90.87
2019-06-15T08:13:31.085Z,89.99
2019-06-15T08:16:18.329Z,90.88
2019-06-15T08:19:05.898Z,89.94
2019-06-15T08:21:53.327Z,87.40
2019-06-15T08:24:40.948Z,87.54
2019-06-15T08:27:28.608Z,87.34
2019-06-15T08:30:16.652Z,85.13
2019-06-15T08:33:03.914Z,85.08
2019-06-15T08:35:51.988Z,84.74
2019-06-15T08:38:39.290Z,78.44
2019-06-15T08:41:26.956Z,81.14
2019-06-15T08:44:14.532Z,77.81
2019-06-15T08:47:01.802Z,76.66
2019-06-15T08:49:49.826Z,74.85
2019-06-15T08:52:37.399Z,74.52
2019-06-15T08:55:24.837Z,72.62
2019-06-15T08:58:12.039Z,70.50
2019-06-15T09:00:59.478Z,66.17
2019-06-15T09:03:49.448Z,65.46
2019-06-15T09:06:34.070Z,63.65
2019-06-15T09:09:22.024Z,63.09
2019-06-15T09:12:09.342Z,62.54
2019-06-15T09:14:56.960Z,62.31
2019-06-15T09:17:44.908Z,62.65
2019-06-15T09:20:32.520Z,63.10
2019-06-15T09:23:20.116Z,61.20
2019-06-15T09:26:08.172Z,62.01
2019-06-15T09:29:07.707Z,62.60
2019-06-15T09:31:46.203Z,65.40
2019-06-15T09:34:30.312Z,65.98
2019-06-15T09:37:17.618Z,66.79
2019-06-15T09:40:04.938Z,65.40
2019-06-15T09:42:52.288Z,64.44
2019-06-15T09:45:39.708Z,61.02
2019-06-15T09:48:27.237Z,62.26
2019-06-15T09:51:14.734Z,61.49
2019-06-15T09:54:01.820Z,61.21
2019-06-15T09:56:49.394Z,61.44
2019-06-15T09:59:38.489Z,60.73
2019-06-15T10:02:24.532Z,59.56
2019-06-15T10:05:11.762Z,57.64
2019-06-15T10:07:58.974Z,57.70
2019-06-15T10:10:46.401Z,59.25
2019-06-15T10:13:33.818Z,59.36
2019-06-15T10:16:21.093Z,59.09
2019-06-15T10:19:08.767Z,59.32
2019-06-15T10:21:56.510Z,58.94
2019-06-15T10:24:44.053Z,57.92
2019-06-15T10:27:31.897Z,58.18
2019-06-15T10:30:19.618Z,59.23
2019-06-15T10:33:07.558Z,59.80
2019-06-15T10:35:55.106Z,58.84
2019-06-15T10:38:42.448Z,58.86
2019-06-15T10:41:29.880Z,59.71
2019-06-15T10:44:17.786Z,60.11
2019-06-15T10:47:05.185Z,60.61
2019-06-15T10:49:52.627Z,60.27
2019-06-15T10:52:40.079Z,58.28
2019-06-15T10:55:27.837Z,58.56
2019-06-15T10:58:15.259Z,59.11
2019-06-15T11:01:03.382Z,59.56
2019-06-15T11:03:51.491Z,60.36
2019-06-15T11:06:38.813Z,60.76
2019-06-15T11:09:26.655Z,61.85
2019-06-15T11:12:14.033Z,62.67
2019-06-15T11:15:01.401Z,62.81
2019-06-15T11:17:48.660Z,63.06
2019-06-15T11:20:35.843Z,63.16
2019-06-15T11:23:23.282Z,62.47
2019-06-15T11:26:10.619Z,62.01
2019-06-15T11:28:57.953Z,62.60
2019-06-15T11:31:45.649Z,61.98
2019-06-15T11:34:33.215Z,61.80
2019-06-15T11:37:20.720Z,61.00
2019-06-15T11:40:08.815Z,60.71
2019-06-15T11:42:56.235Z,61.40
2019-06-15T11:45:43.909Z,63.28
2019-06-15T11:48:31.339Z,64.22
2019-06-15T11:51:19.132Z,64.82
2019-06-15T11:54:06.527Z,66.80
2019-06-15T11:56:54.516Z,67.19
2019-06-15T11:59:42.360Z,67.83
2019-06-15T12:02:29.838Z,69.48
2019-06-15T12:05:17.604Z,70.45
2019-06-15T12:08:05.539Z,70.44
2019-06-15T12:10:53.131Z,70.17
2019-06-15T12:13:40.680Z,70.10
2019-06-15T12:16:27.904Z,69.36
2019-06-15T12:19:15.330Z,68.00
2019-06-15T12:22:02.953Z,68.89
2019-06-15T12:24:50.521Z,67.83
2019-06-15T12:27:37.914Z,68.69
2019-06-15T12:30:42.959Z,68.95
2019-06-15T12:33:17.417Z,69.32
2019-06-15T12:36:18.353Z,69.47
2019-06-15T12:38:52.258Z,68.04
2019-06-15T12:41:39.549Z,67.45
2019-06-15T12:44:27.010Z,65.29
2019-06-15T12:47:14.667Z,62.63
2019-06-15T12:50:02.084Z,60.23
2019-06-15T12:52:49.581Z,58.35
2019-06-15T12:55:37.003Z,55.62
2019-06-15T12:58:24.357Z,54.47
2019-06-15T13:01:11.840Z,55.37
2019-06-15T13:03:59.285Z,55.46
2019-06-15T13:06:47.158Z,54.36
2019-06-15T13:09:34.879Z,53.95
2019-06-15T13:12:22.325Z,54.40
2019-06-15T13:15:10.026Z,53.78
2019-06-15T13:17:58.088Z,52.38
2019-06-15T13:20:45.316Z,51.29
2019-06-15T13:23:33.191Z,51.62
2019-06-15T13:26:20.613Z,54.28
2019-06-15T13:29:08.779Z,55.44
2019-06-15T13:31:56.051Z,57.54
2019-06-15T13:34:44.042Z,57.65
2019-06-15T13:37:41.708Z,57.10
2019-06-15T13:40:19.734Z,57.45
2019-06-15T13:43:06.830Z,58.23
2019-06-15T13:45:54.204Z,59.88
2019-06-15T13:48:42.214Z,60.34
2019-06-15T13:51:30.198Z,61.22
2019-06-15T13:54:17.601Z,61.59
2019-06-15T13:57:05.644Z,61.61
2019-06-15T13:59:53.039Z,62.16
2019-06-15T14:02:40.369Z,62.44
2019-06-15T14:05:27.714Z,62.83
2019-06-15T14:08:15.372Z,63.56
2019-06-15T14:11:03.290Z,63.71
2019-06-15T14:13:51.220Z,63.96
2019-06-15T14:16:38.484Z,63.75
2019-06-15T14:19:25.829Z,62.18
2019-06-15T14:22:13.129Z,61.44
2019-06-15T14:25:00.632Z,60.42
2019-06-15T14:27:48.208Z,60.11
2019-06-15T14:30:35.840Z,59.80
2019-06-15T14:33:23.737Z,60.18
2019-06-15T14:36:11.280Z,60.09
2019-06-15T14:38:59.044Z,59.50
2019-06-15T14:41:50.060Z,59.53
2019-06-15T14:44:33.872Z,59.55
2019-06-15T14:47:21.080Z,58.61
2019-06-15T14:50:08.312Z,58.43
2019-06-15T14:52:56.308Z,58.54
2019-06-15T14:55:45.840Z,59.45
2019-06-15T14:58:30.983Z,60.31
2019-06-15T15:01:19.022Z,60.62
2019-06-15T15:04:06.616Z,60.72
2019-06-15T15:06:56.423Z,61.27
2019-06-15T15:09:41.662Z,60.61
2019-06-15T15:12:29.544Z,60.97
2019-06-15T15:15:17.287Z,60.85
2019-06-15T15:18:06.838Z,60.69
2019-06-15T15:20:51.977Z,60.25
2019-06-15T15:23:39.538Z,59.82
2019-06-15T15:26:26.952Z,58.05
2019-06-15T15:29:16.313Z,56.34
2019-06-15T15:32:01.892Z,53.60
2019-06-15T15:34:49.294Z,50.88
2019-06-15T15:37:37.293Z,46.41
2019-06-15T15:40:24.128Z,46.08
2019-06-15T15:43:11.319Z,48.09
2019-06-15T15:45:58.756Z,51.12
2019-06-15T15:48:46.980Z,53.00
2019-06-15T15:51:33.799Z,54.18
2019-06-15T15:54:21.054Z,55.81
2019-06-15T15:57:08.663Z,52.32
2019-06-15T15:59:56.462Z,48.42
2019-06-15T16:02:51.564Z,44.53
2019-06-15T16:05:31.084Z,42.03
2019-06-15T16:08:18.474Z,41.48
2019-06-15T16:11:05.931Z,39.75
2019-06-15T16:13:53.190Z,39.23
2019-06-15T16:16:40.366Z,40.65
2019-06-15T16:19:28.002Z,38.58
2019-06-15T16:22:15.861Z,38.22
2019-06-15T16:25:03.270Z,37.52
2019-06-15T16:27:50.957Z,38.52
2019-06-15T16:31:00.267Z,36.90
2019-06-15T16:33:26.624Z,36.47
2019-06-15T16:36:13.780Z,36.17
2019-06-15T16:39:01.710Z,35.71
2019-06-15T16:41:49.158Z,34.84
2019-06-15T16:44:37.028Z,32.98
2019-06-15T16:47:27.177Z,32.57
2019-06-15T16:50:12.307Z,31.33
2019-06-15T16:52:59.688Z,35.33
2019-06-15T16:55:47.086Z,36.08
2019-06-15T16:58:36.331Z,36.98
2019-06-15T17:01:22.622Z,38.07
2019-06-15T17:04:10.027Z,37.78
2019-06-15T17:06:57.217Z,37.84
2019-06-15T17:09:46.504Z,37.05
2019-06-15T17:12:31.976Z,37.61
2019-06-15T17:15:19.968Z,38.68
2019-06-15T17:18:10.170Z,41.68
2019-06-15T17:20:57.399Z,41.03
2019-06-15T17:23:46.719Z,41.68
2019-06-15T17:26:32.785Z,43.61
2019-06-15T17:29:20.256Z,44.23
2019-06-15T17:32:07.713Z,43.68
2019-06-15T17:34:56.390Z,44.40
2019-06-15T17:37:43.102Z,46.01
2019-06-15T17:40:30.765Z,47.04
2019-06-15T17:43:18.495Z,45.53
2019-06-15T17:46:07.279Z,44.33
2019-06-15T17:48:53.309Z,42.95
2019-06-15T17:51:40.957Z,44.46
2019-06-15T17:54:28.982Z,44.31
2019-06-15T17:57:16.965Z,44.57
2019-06-15T18:00:05.848Z,44.83
2019-06-15T18:02:56.032Z,44.04
2019-06-15T18:05:41.156Z,41.15
2019-06-15T18:08:28.585Z,41.45
2019-06-15T18:11:16.688Z,41.85
2019-06-15T18:14:05.971Z,40.81
2019-06-15T18:16:52.055Z,39.41
2019-06-15T18:19:39.520Z,40.89
2019-06-15T18:22:27.195Z,40.04
2019-06-15T18:25:14.561Z,39.65
2019-06-15T18:28:02.526Z,42.20
2019-06-15T18:30:49.916Z,41.87
2019-06-15T18:33:37.361Z,41.97
2019-06-15T18:36:26.626Z,41.74
2019-06-15T18:39:12.995Z,42.36
2019-06-15T18:42:00.403Z,43.59
2019-06-15T18:44:48.079Z,44.67
2019-06-15T18:47:36.515Z,45.17
2019-06-15T18:50:33.826Z,43.65
2019-06-15T18:53:21.649Z,43.45
2019-06-15T18:56:09.053Z,42.75
2019-06-15T18:58:56.537Z,41.68
2019-06-15T19:01:43.947Z,41.54
2019-06-15T19:04:32.013Z,41.84
2019-06-15T19:07:19.887Z,44.13
2019-06-15T19:10:07.813Z,45.36
2019-06-15T19:12:56.710Z,46.91
2019-06-15T19:15:42.983Z,49.53
2019-06-15T19:18:30.262Z,50.72
2019-06-15T19:21:17.732Z,51.30
2019-06-15T19:24:07.205Z,52.09
2019-06-15T19:26:52.295Z,52.55
2019-06-15T19:29:40.221Z,52.85
2019-06-15T19:32:27.682Z,53.41
2019-06-15T19:35:15.280Z,53.49
2019-06-15T19:38:06.030Z,53.63
2019-06-15T19:40:50.915Z,54.13
2019-06-15T19:43:38.397Z,54.13
2019-06-15T19:46:26.106Z,53.98
2019-06-15T19:49:13.076Z,54.43
2019-06-15T19:52:00.641Z,54.38
2019-06-15T19:54:48.079Z,54.66
2019-06-15T19:57:36.208Z,54.48
2019-06-15T20:00:22.956Z,55.12
2019-06-15T20:03:10.825Z,55.19
2019-06-15T20:05:58.255Z,55.51
2019-06-15T20:08:46.885Z,55.89
2019-06-15T20:11:33.167Z,55.76
2019-06-15T20:14:20.702Z,56.16
2019-06-15T20:17:07.955Z,56.45
2019-06-15T20:19:55.941Z,56.98
2019-06-15T20:22:42.793Z,57.22
2019-06-15T20:25:30.265Z,57.46
2019-06-15T20:28:18.214Z,57.54
2019-06-15T20:31:06.523Z,58.15
2019-06-15T20:33:53.165Z,58.59
2019-06-15T20:36:40.719Z,58.95
2019-06-15T20:39:28.133Z,59.45
2019-06-15T20:42:16.493Z,59.37
2019-06-15T20:45:04.268Z,59.28
2019-06-15T20:47:51.774Z,59.59
2019-06-15T20:50:39.299Z,59.92
2019-06-15T20:53:26.819Z,60.54
2019-06-15T20:56:16.923Z,60.80
2019-06-15T20:59:02.122Z,61.26
2019-06-15T21:01:49.574Z,61.49
2019-06-15T21:04:37.431Z,61.81
2019-06-15T21:07:26.947Z,62.17
2019-06-15T21:10:12.370Z,62.73
2019-06-15T21:12:59.712Z,63.01
2019-06-15T21:15:47.855Z,63.58
2019-06-15T21:18:36.902Z,64.16
2019-06-15T21:21:22.107Z,64.23
2019-06-15T21:24:09.898Z,64.94
2019-06-15T21:26:57.117Z,65.41
2019-06-15T21:29:44.660Z,65.38
2019-06-15T21:32:32.388Z,65.63
2019-06-15T21:35:20.163Z,65.98
2019-06-15T21:38:07.696Z,66.17
2019-06-15T21:40:57.048Z,66.50
2019-06-15T21:43:42.849Z,66.88
2019-06-15T21:46:30.466Z,67.43
2019-06-15T21:49:18.012Z,67.62
2019-06-15T21:52:07.123Z,67.81
2019-06-15T21:54:55.852Z,68.16
2019-06-15T21:57:41.194Z,68.40
2019-06-15T22:00:38.848Z,68.94
2019-06-15T22:03:27.013Z,69.22
2019-06-15T22:06:16.745Z,69.48
2019-06-15T22:09:02.362Z,69.84
2019-06-15T22:11:49.891Z,70.00
2019-06-15T22:14:37.568Z,70.30
2019-06-15T22:17:27.021Z,70.54
2019-06-15T22:20:16.786Z,70.86
2019-06-15T22:23:01.659Z,71.27
2019-06-15T22:25:49.426Z,71.72
2019-06-15T22:28:36.579Z,71.91
2019-06-15T22:31:23.975Z,72.24
2019-06-15T22:34:11.966Z,72.58
2019-06-15T22:36:59.798Z,72.88
2019-06-15T22:39:47.697Z,73.19
2019-06-15T22:42:36.302Z,73.27
2019-06-15T22:45:23.250Z,73.43
2019-06-15T22:48:11.115Z,73.86
2019-06-15T22:50:58.718Z,73.98
2019-06-15T22:53:47.108Z,74.21
2019-06-15T22:56:33.540Z,74.61
2019-06-15T22:59:21.030Z,74.92
2019-06-15T23:02:08.433Z,74.82
2019-06-15T23:04:56.670Z,75.17
2019-06-15T23:07:43.708Z,75.59
2019-06-15T23:10:31.232Z,75.92
2019-06-15T23:13:18.864Z,75.89
2019-06-15T23:16:06.725Z,76.29
2019-06-15T23:18:56.768Z,76.64
2019-06-15T23:21:41.642Z,76.88
2019-06-15T23:24:29.585Z,77.35
2019-06-15T23:27:17.667Z,77.35
2019-06-15T23:30:06.728Z,77.54
2019-06-15T23:32:52.446Z,77.58
2019-06-15T23:35:46.677Z,77.70
2019-06-15T23:38:33.806Z,78.11
2019-06-15T23:41:21.919Z,78.23
2019-06-15T23:44:09.464Z,78.66
2019-06-15T23:46:56.788Z,79.02
2019-06-15T23:49:46.120Z,79.22
2019-06-15T23:52:32.450Z,79.32
2019-06-15T23:55:20.351Z,79.41
2019-06-15T23:58:07.618Z,79.61
